createdAt,value
2023-02-22T00:02:11.250Z,98754.72
2023-02-22T00:04:39.872Z,98769.13
2023-02-22T00:07:07.957Z,98788.91
2023-02-22T00:09:35.055Z,98794.28
2023-02-22T00:12:02.419Z,98808.13
2023-02-22T00:14:29.545Z,98737.28
2023-02-22T00:16:59.773Z,98741.50
2023-02-22T00:19:28.261Z,98794.38
2023-02-22T00:21:55.557Z,98805.66
2023-02-22T00:24:25.650Z,98737.88
2023-02-22T00:26:55.831Z,98804.06
2023-02-22T00:29:26.366Z,98783.44
2023-02-22T00:31:54.244Z,98819.19
2023-02-22T00:34:23.576Z,98763.69
2023-02-22T00:36:50.802Z,98793.28
2023-02-22T00:39:18.434Z,98836.50
2023-02-22T00:41:45.624Z,98640.66
2023-02-22T00:44:13.045Z,98838.88
2023-02-22T00:46:40.263Z,98783.50
2023-02-22T00:49:07.632Z,98789.03
2023-02-22T00:51:34.919Z,98801.94
2023-02-22T00:54:02.243Z,98820.28
2023-02-22T00:56:29.334Z,98854.56
2023-02-22T00:58:56.448Z,98851.94
2023-02-22T01:01:24.439Z,98780.13
2023-02-22T01:03:51.805Z,98825.97
2023-02-22T01:06:19.653Z,98845.75
2023-02-22T01:08:48.073Z,98851.78
2023-02-22T01:11:17.091Z,98863.81
2023-02-22T01:13:45.528Z,98844.34
2023-02-22T01:16:12.995Z,98711.50
2023-02-22T01:18:40.390Z,98861.50
2023-02-22T01:21:08.735Z,98786.34
2023-02-22T01:23:35.859Z,98801.75
2023-02-22T01:26:06.226Z,98861.78
2023-02-22T01:28:34.443Z,98819.69
2023-02-22T01:31:03.433Z,98797.94
2023-02-22T01:33:31.471Z,98765.97
2023-02-22T01:35:59.843Z,98863.69
2023-02-22T01:38:27.875Z,98887.00
2023-02-22T01:40:55.207Z,98816.41
2023-02-22T01:43:29.947Z,98885.38
2023-02-22T01:46:02.118Z,98903.84
2023-02-22T01:48:41.752Z,98902.41
2023-02-22T01:51:28.584Z,98829.13
2023-02-22T01:54:00.389Z,98915.63
2023-02-22T01:56:29.889Z,98890.94
2023-02-22T01:59:02.335Z,98919.13
2023-02-22T02:01:30.533Z,98869.59
2023-02-22T02:04:00.384Z,98924.53
2023-02-22T02:06:31.490Z,98925.88
2023-02-22T02:09:44.929Z,98911.34
2023-02-22T02:12:14.336Z,98928.38
2023-02-22T02:14:44.088Z,98833.09
2023-02-22T02:17:15.506Z,98875.16
2023-02-22T02:20:07.321Z,98872.69
2023-02-22T02:22:46.513Z,98951.06
2023-02-22T02:25:35.124Z,98945.53
2023-02-22T02:28:40.912Z,98947.72
2023-02-22T02:31:39.486Z,98954.03
2023-02-22T02:34:29.763Z,98941.56
2023-02-22T02:37:15.572Z,98966.63
2023-02-22T02:39:56.838Z,98946.97
2023-02-22T02:42:33.716Z,98923.66
2023-02-22T02:45:12.623Z,98905.06
2023-02-22T02:47:48.233Z,98976.88
2023-02-22T02:50:27.842Z,98976.88
2023-02-22T02:52:58.961Z,98955.19
2023-02-22T02:55:30.723Z,98970.00
2023-02-22T02:57:57.809Z,98949.75
2023-02-22T03:00:29.957Z,98944.34
2023-02-22T03:03:24.111Z,98981.28
2023-02-22T03:06:09.462Z,98992.84
2023-02-22T03:08:56.542Z,98905.16
2023-02-22T03:11:28.908Z,98992.44
2023-02-22T03:14:16.185Z,98996.97
2023-02-22T03:17:04.968Z,99003.28
2023-02-22T03:19:39.792Z,98939.34
2023-02-22T03:22:09.210Z,99006.34
2023-02-22T03:24:54.889Z,99007.06
2023-02-22T03:27:29.144Z,99015.44
2023-02-22T03:30:05.093Z,98914.06
2023-02-22T03:32:38.578Z,98995.66
2023-02-22T03:35:14.120Z,98983.13
2023-02-22T03:37:47.214Z,98902.31
2023-02-22T03:40:26.264Z,99017.03
2023-02-22T03:43:06.914Z,99024.06
2023-02-22T03:45:40.889Z,98970.66
2023-02-22T03:48:27.787Z,99040.81
2023-02-22T03:50:55.182Z,98954.38
2023-02-22T03:53:23.420Z,99047.56
2023-02-22T03:55:55.790Z,99061.03
2023-02-22T03:58:28.091Z,99053.69
2023-02-22T04:00:55.928Z,99000.88
2023-02-22T04:03:24.041Z,99014.25
2023-02-22T04:05:52.874Z,99047.22
2023-02-22T04:08:21.438Z,98979.00
2023-02-22T04:10:48.788Z,99065.75
2023-02-22T04:13:18.709Z,99066.47
2023-02-22T04:15:48.544Z,99067.34
2023-02-22T04:18:16.510Z,99075.09
2023-02-22T04:20:46.269Z,99056.59
2023-02-22T04:23:21.544Z,99051.44
2023-02-22T04:25:49.382Z,99019.09
2023-02-22T04:28:19.783Z,99068.69
2023-02-22T04:30:52.807Z,99021.69
2023-02-22T04:33:20.439Z,99064.72
2023-02-22T04:35:47.797Z,99033.84
2023-02-22T04:38:15.531Z,99086.13
2023-02-22T04:40:42.662Z,99108.91
2023-02-22T04:43:09.956Z,99041.00
2023-02-22T04:45:37.285Z,99073.16
2023-02-22T04:48:06.238Z,99114.75
2023-02-22T04:50:33.521Z,99058.16
2023-02-22T04:53:00.664Z,99047.13
2023-02-22T04:55:30.548Z,99112.50
2023-02-22T04:57:58.060Z,99134.41
2023-02-22T05:00:25.536Z,99133.81
2023-02-22T05:02:57.335Z,99127.22
2023-02-22T05:05:24.640Z,99130.06
2023-02-22T05:07:52.014Z,99129.06
2023-02-22T05:10:20.059Z,99035.28
2023-02-22T05:12:47.341Z,99146.75
2023-02-22T05:15:20.445Z,99143.28
2023-02-22T05:17:48.301Z,99037.47
2023-02-22T05:20:28.955Z,99083.47
2023-02-22T05:23:00.591Z,99120.81
2023-02-22T05:25:28.492Z,99155.88
2023-02-22T05:27:58.111Z,99076.25
2023-02-22T05:30:30.611Z,99146.50
2023-02-22T05:32:59.554Z,99154.31
2023-02-22T05:35:27.819Z,99173.06
2023-02-22T05:37:55.555Z,99163.94
2023-02-22T05:40:25.527Z,99175.41
2023-02-22T05:42:53.800Z,99165.63
2023-02-22T05:45:23.169Z,99189.25
2023-02-22T05:47:50.898Z,99166.97
2023-02-22T05:50:19.915Z,99170.22
2023-02-22T05:52:49.033Z,99012.22
2023-02-22T05:55:19.006Z,99127.91
2023-02-22T05:57:47.182Z,99160.56
2023-02-22T06:00:23.406Z,99112.66
2023-02-22T06:03:00.101Z,99187.63
2023-02-22T06:05:30.477Z,99196.47
2023-02-22T06:07:58.979Z,99180.75
2023-02-22T06:10:27.294Z,99170.03
2023-02-22T06:12:55.124Z,99179.47
2023-02-22T06:15:24.132Z,99200.78
2023-02-22T06:17:51.840Z,99180.63
2023-02-22T06:20:22.836Z,99194.59
2023-02-22T06:22:54.211Z,99200.31
2023-02-22T06:25:24.520Z,99129.84
2023-02-22T06:27:51.726Z,99195.22
2023-02-22T06:30:21.538Z,99126.59
2023-02-22T06:32:48.737Z,99218.53
2023-02-22T06:35:16.897Z,99133.81
2023-02-22T06:37:44.026Z,99210.16
2023-02-22T06:40:11.637Z,99202.94
2023-02-22T06:42:39.511Z,99171.81
2023-02-22T06:45:07.622Z,99141.56
2023-02-22T06:47:39.787Z,99218.50
2023-02-22T06:50:08.089Z,99142.97
2023-02-22T06:52:35.247Z,99214.66
2023-02-22T06:55:02.383Z,99198.63
2023-02-22T06:57:30.454Z,99204.97
2023-02-22T06:59:57.585Z,99136.81
2023-02-22T07:02:24.763Z,99165.38
2023-02-22T07:04:51.908Z,99221.75
2023-02-22T07:07:19.008Z,99217.00
2023-02-22T07:09:48.034Z,99217.97
2023-02-22T07:12:15.165Z,99169.38
2023-02-22T07:14:42.901Z,99173.91
2023-02-22T07:17:10.133Z,99183.88
2023-02-22T07:19:37.184Z,99214.81
2023-02-22T07:22:04.326Z,99236.56
2023-02-22T07:24:31.492Z,99223.19
2023-02-22T07:27:02.053Z,99239.66
2023-02-22T07:29:29.276Z,99231.69
2023-02-22T07:31:57.852Z,99240.44
2023-02-22T07:34:25.017Z,99141.94
2023-02-22T07:36:52.155Z,99180.59
2023-02-22T07:39:19.381Z,99206.31
2023-02-22T07:41:46.684Z,99254.97
2023-02-22T07:44:24.024Z,99219.34
2023-02-22T07:46:51.098Z,99226.66
2023-02-22T07:49:18.661Z,99204.22
2023-02-22T07:51:45.956Z,99252.44
2023-02-22T07:54:13.154Z,99239.50
2023-02-22T07:56:49.556Z,99158.50
2023-02-22T07:59:16.913Z,99283.59
2023-02-22T08:01:44.451Z,99242.63
2023-02-22T08:04:11.633Z,99218.34
2023-02-22T08:06:38.898Z,99262.19
2023-02-22T08:09:06.148Z,99238.59
2023-02-22T08:11:33.455Z,99267.28
2023-02-22T08:14:00.656Z,99246.41
2023-02-22T08:16:28.018Z,99279.00
2023-02-22T08:18:55.226Z,99279.13
2023-02-22T08:21:22.431Z,99260.56
2023-02-22T08:23:54.555Z,99293.59
2023-02-22T08:26:21.759Z,99264.66
2023-02-22T08:28:49.098Z,99276.31
2023-02-22T08:31:16.555Z,99276.19
2023-02-22T08:33:47.132Z,99281.19
2023-02-22T08:36:14.232Z,99259.78
2023-02-22T08:38:41.591Z,99276.06
2023-02-22T08:41:11.306Z,99249.31
2023-02-22T08:43:38.506Z,99276.16
2023-02-22T08:46:05.660Z,99294.34
2023-02-22T08:48:32.881Z,99284.81
2023-02-22T08:51:00.101Z,99294.50
2023-02-22T08:53:27.365Z,99287.47
2023-02-22T08:55:56.877Z,99293.44
2023-02-22T08:58:23.964Z,99256.78
2023-02-22T09:00:51.174Z,99263.69
2023-02-22T09:03:18.504Z,99293.63
2023-02-22T09:05:45.789Z,99232.34
2023-02-22T09:08:13.106Z,99303.00
2023-02-22T09:10:40.895Z,99319.97
2023-02-22T09:13:08.142Z,99312.53
2023-02-22T09:15:36.550Z,99271.88
2023-02-22T09:18:05.817Z,99236.06
2023-02-22T09:20:32.902Z,99318.19
2023-02-22T09:23:03.614Z,99314.22
2023-02-22T09:25:31.097Z,99320.91
2023-02-22T09:27:58.530Z,99298.03
2023-02-22T09:30:34.396Z,99258.50
2023-02-22T09:33:04.449Z,99286.44
2023-02-22T09:35:31.865Z,99292.66
2023-02-22T09:38:00.542Z,99268.63
2023-02-22T09:40:31.040Z,99335.59
2023-02-22T09:43:27.838Z,99346.00
2023-02-22T09:46:13.718Z,99346.00
2023-02-22T09:49:02.508Z,99345.41
2023-02-22T09:51:38.052Z,99353.34
2023-02-22T09:54:14.784Z,99278.19
2023-02-22T09:56:44.342Z,99334.34
2023-02-22T09:59:15.783Z,99311.28
2023-02-22T10:01:50.317Z,99307.47
2023-02-22T10:04:38.872Z,99343.09
2023-02-22T10:07:18.496Z,99334.66
2023-02-22T10:09:48.594Z,99155.41
2023-02-22T10:12:30.347Z,99328.66
2023-02-22T10:15:42.609Z,99340.09
2023-02-22T10:18:31.215Z,99349.56
2023-02-22T10:21:14.563Z,99348.97
2023-02-22T10:24:17.258Z,99265.91
2023-02-22T10:26:47.081Z,99333.75
2023-02-22T10:29:29.830Z,99351.72
2023-02-22T10:32:00.766Z,99347.00
2023-02-22T10:34:36.643Z,99295.25
2023-02-22T10:37:34.825Z,99324.78
2023-02-22T10:40:23.143Z,99318.31
2023-02-22T10:42:50.909Z,99366.88
2023-02-22T10:45:30.073Z,99328.97
2023-02-22T10:47:59.877Z,99311.44
2023-02-22T10:50:31.257Z,99325.50
2023-02-22T10:52:58.400Z,99374.28
2023-02-22T10:55:25.860Z,99332.63
2023-02-22T10:58:02.367Z,99315.69
2023-02-22T11:00:33.301Z,99354.16
2023-02-22T11:03:03.009Z,99357.22
2023-02-22T11:05:37.021Z,99371.00
2023-02-22T11:08:16.250Z,99352.94
2023-02-22T11:10:43.644Z,99366.88
2023-02-22T11:13:33.702Z,99338.38
2023-02-22T11:16:17.568Z,99288.59
2023-02-22T11:18:44.793Z,99383.97
2023-02-22T11:21:14.163Z,99286.78
2023-02-22T11:23:45.077Z,99356.59
2023-02-22T11:26:17.693Z,99382.66
2023-02-22T11:28:49.824Z,99348.81
2023-02-22T11:31:21.129Z,99375.75
2023-02-22T11:34:00.063Z,99391.19
2023-02-22T11:36:40.623Z,99400.84
2023-02-22T11:39:27.228Z,99362.78
2023-02-22T11:41:56.753Z,99407.63
2023-02-22T11:44:28.876Z,99410.16
2023-02-22T11:47:01.699Z,99375.28
2023-02-22T11:49:38.599Z,99411.09
2023-02-22T11:52:27.014Z,99410.25
2023-02-22T11:55:43.148Z,99424.22
2023-02-22T11:58:45.876Z,99420.19
2023-02-22T12:01:51.626Z,99433.56
2023-02-22T12:04:55.840Z,99431.50
2023-02-22T12:07:56.851Z,99389.47
2023-02-22T12:10:55.620Z,99425.69
2023-02-22T12:13:37.780Z,99304.41
2023-02-22T12:16:27.193Z,99395.34
2023-02-22T12:19:10.473Z,99386.91
2023-02-22T12:21:42.944Z,99446.69
2023-02-22T12:24:16.629Z,99412.50
2023-02-22T12:26:59.019Z,99455.03
2023-02-22T12:29:47.448Z,99460.63
2023-02-22T12:32:33.512Z,99421.41
2023-02-22T12:35:26.765Z,99467.34
2023-02-22T12:38:04.992Z,99466.34
2023-02-22T12:41:01.831Z,99475.88
2023-02-22T12:43:36.664Z,99462.63
2023-02-22T12:46:13.874Z,99478.97
2023-02-22T12:48:48.112Z,99481.25
2023-02-22T12:51:31.928Z,99478.63
2023-02-22T12:54:02.049Z,99477.19
2023-02-22T12:56:36.601Z,99498.06
2023-02-22T12:59:15.478Z,99473.28
2023-02-22T13:01:46.688Z,99487.38
2023-02-22T13:04:20.924Z,99455.41
2023-02-22T13:07:06.075Z,99504.38
2023-02-22T13:10:18.983Z,99506.00
2023-02-22T13:13:15.675Z,99511.81
2023-02-22T13:15:57.831Z,99509.03
2023-02-22T13:18:48.903Z,99518.47
2023-02-22T13:21:34.450Z,99522.63
2023-02-22T13:24:16.127Z,99415.09
2023-02-22T13:26:52.308Z,99502.34
2023-02-22T13:29:38.022Z,99508.38
2023-02-22T13:32:20.949Z,99479.91
2023-02-22T13:35:20.391Z,99531.44
2023-02-22T13:37:56.497Z,99535.66
2023-02-22T13:40:50.078Z,99536.19
2023-02-22T13:43:43.777Z,99518.72
2023-02-22T13:46:44.990Z,99545.94
2023-02-22T13:49:39.849Z,99545.66
2023-02-22T13:52:12.517Z,99540.38
2023-02-22T13:54:48.739Z,99544.66
2023-02-22T13:57:37.059Z,99539.22
2023-02-22T14:00:16.637Z,99485.78
2023-02-22T14:03:27.086Z,99533.75
2023-02-22T14:05:57.376Z,99530.94
2023-02-22T14:08:31.748Z,99547.38
2023-02-22T14:11:00.994Z,99523.28
2023-02-22T14:13:30.790Z,99469.94
2023-02-22T14:16:00.995Z,99549.72
2023-02-22T14:18:43.687Z,99495.66
2023-02-22T14:21:21.140Z,99433.00
2023-02-22T14:23:53.425Z,99554.44
2023-02-22T14:26:31.422Z,99557.59
2023-02-22T14:29:09.275Z,99549.25
2023-02-22T14:31:51.093Z,99562.69
2023-02-22T14:34:20.084Z,99564.34
2023-02-22T14:37:17.471Z,99568.31
2023-02-22T14:39:51.220Z,99497.19
2023-02-22T14:42:21.599Z,99582.59
2023-02-22T14:44:49.040Z,99568.59
2023-02-22T14:47:32.268Z,99568.72
2023-02-22T14:50:13.132Z,99486.38
2023-02-22T14:52:42.855Z,99522.47
2023-02-22T14:55:23.987Z,99574.91
2023-02-22T14:58:08.894Z,99576.97
2023-02-22T15:00:47.578Z,99560.66
2023-02-22T15:03:37.474Z,99539.94
2023-02-22T15:06:16.313Z,99569.88
2023-02-22T15:08:50.900Z,99589.31
2023-02-22T15:11:27.974Z,99450.94
2023-02-22T15:13:55.232Z,99576.66
2023-02-22T15:16:23.959Z,99602.38
2023-02-22T15:18:55.210Z,99514.13
2023-02-22T15:21:27.149Z,99585.00
2023-02-22T15:24:03.816Z,99608.72
2023-02-22T15:26:51.949Z,99595.31
2023-02-22T15:29:44.689Z,99523.69
2023-02-22T15:32:30.480Z,99600.00
2023-02-22T15:35:29.282Z,99625.69
2023-02-22T15:38:16.594Z,99614.69
2023-02-22T15:40:45.368Z,99629.81
2023-02-22T15:43:24.638Z,99614.38
2023-02-22T15:45:52.513Z,99634.03
2023-02-22T15:48:20.266Z,99604.66
2023-02-22T15:51:10.834Z,99538.59
2023-02-22T15:53:49.841Z,99597.81
2023-02-22T15:56:27.082Z,99625.94
2023-02-22T15:59:00.796Z,99627.69
2023-02-22T16:01:57.059Z,99598.00
2023-02-22T16:04:31.672Z,99629.06
2023-02-22T16:07:17.334Z,99602.41
2023-02-22T16:09:51.987Z,99641.44
2023-02-22T16:12:22.113Z,99628.69
2023-02-22T16:14:50.410Z,99644.44
2023-02-22T16:17:35.886Z,99620.53
2023-02-22T16:20:25.092Z,99647.53
2023-02-22T16:22:52.370Z,99588.19
2023-02-22T16:25:19.445Z,99557.56
2023-02-22T16:28:34.197Z,99636.16
2023-02-22T16:31:02.088Z,99654.50
2023-02-22T16:33:34.149Z,99645.63
2023-02-22T16:36:06.534Z,99644.75
2023-02-22T16:38:38.547Z,99633.59
2023-02-22T16:41:07.717Z,99645.94
2023-02-22T16:43:36.504Z,99654.31
2023-02-22T16:46:07.087Z,99629.34
2023-02-22T16:48:38.480Z,99615.19
2023-02-22T16:51:27.091Z,99619.31
2023-02-22T16:53:56.088Z,99655.72
2023-02-22T16:56:30.895Z,99627.66
2023-02-22T16:59:04.200Z,99647.94
2023-02-22T17:01:35.308Z,99659.88
2023-02-22T17:04:03.025Z,99679.78
2023-02-22T17:06:30.250Z,99668.72
2023-02-22T17:08:57.352Z,99675.78
2023-02-22T17:11:24.644Z,99617.81
2023-02-22T17:13:52.084Z,99677.88
2023-02-22T17:16:19.560Z,99694.84
2023-02-22T17:18:47.023Z,99687.63
2023-02-22T17:21:14.936Z,99669.50
2023-02-22T17:23:44.507Z,99701.78
2023-02-22T17:26:16.302Z,99711.84
2023-02-22T17:28:44.355Z,99715.81
2023-02-22T17:31:21.168Z,99688.22
2023-02-22T17:33:48.720Z,99703.56
2023-02-22T17:36:16.301Z,99715.81
2023-02-22T17:38:44.004Z,99677.06
2023-02-22T17:41:11.293Z,99702.75
2023-02-22T17:43:38.496Z,99665.59
2023-02-22T17:46:08.196Z,99643.22
2023-02-22T17:48:35.682Z,99693.03
2023-02-22T17:51:07.883Z,99698.63
2023-02-22T17:53:35.748Z,99729.56
2023-02-22T17:56:16.863Z,99704.84
2023-02-22T17:58:50.482Z,99718.97
2023-02-22T18:01:25.145Z,99734.91
2023-02-22T18:03:53.539Z,99731.22
2023-02-22T18:06:25.168Z,99724.91
2023-02-22T18:08:55.823Z,99747.31
2023-02-22T18:11:26.568Z,99747.31
2023-02-22T18:13:58.080Z,99745.13
2023-02-22T18:16:26.280Z,99710.19
2023-02-22T18:18:54.729Z,99674.06
2023-02-22T18:21:22.707Z,99714.75
2023-02-22T18:23:49.774Z,99754.88
2023-02-22T18:26:18.719Z,99648.59
2023-02-22T18:28:48.826Z,99706.34
2023-02-22T18:31:20.756Z,99716.53
2023-02-22T18:33:51.197Z,99735.13
2023-02-22T18:36:23.702Z,99696.03
2023-02-22T18:38:55.166Z,99755.78
2023-02-22T18:41:27.197Z,99753.84
2023-02-22T18:43:57.759Z,99741.00
2023-02-22T18:46:25.743Z,99729.84
2023-02-22T18:48:54.902Z,99765.38
2023-02-22T18:51:23.313Z,99748.41
2023-02-22T18:53:55.121Z,99688.97
2023-02-22T18:56:22.834Z,99753.56
2023-02-22T18:58:54.788Z,99763.59
2023-02-22T19:01:23.236Z,99750.19
2023-02-22T19:03:52.028Z,99731.75
2023-02-22T19:06:22.212Z,99769.50
2023-02-22T19:08:50.885Z,99774.53
2023-02-22T19:11:23.242Z,99767.00
2023-02-22T19:13:54.170Z,99773.03
2023-02-22T19:16:26.592Z,99780.41
2023-02-22T19:18:57.629Z,99755.94
2023-02-22T19:21:27.097Z,99779.41
2023-02-22T19:24:00.975Z,99783.97
2023-02-22T19:26:29.603Z,99760.22
2023-02-22T19:28:58.865Z,99745.34
2023-02-22T19:31:29.889Z,99790.03
2023-02-22T19:34:04.979Z,99749.44
2023-02-22T19:36:32.790Z,99787.06
2023-02-22T19:39:03.070Z,99772.78
2023-02-22T19:41:31.060Z,99770.41
2023-02-22T19:43:58.782Z,99797.38
2023-02-22T19:46:25.930Z,99760.81
2023-02-22T19:48:55.474Z,99789.28
2023-02-22T19:51:25.720Z,99790.59
2023-02-22T19:53:53.250Z,99790.00
2023-02-22T19:56:27.229Z,99778.97
2023-02-22T19:58:56.643Z,99792.66
2023-02-22T20:01:26.451Z,99712.41
2023-02-22T20:03:59.956Z,99723.19
2023-02-22T20:06:30.005Z,99808.91
2023-02-22T20:08:57.920Z,99801.38
2023-02-22T20:11:25.586Z,99816.44
2023-02-22T20:13:55.677Z,99810.81
2023-02-22T20:16:23.826Z,99823.22
2023-02-22T20:18:51.468Z,99732.13
2023-02-22T20:21:27.441Z,99782.78
2023-02-22T20:23:57.391Z,99813.31
2023-02-22T20:26:26.235Z,99688.91
2023-02-22T20:28:53.869Z,99799.25
2023-02-22T20:31:21.727Z,99805.75
2023-02-22T20:33:56.889Z,99822.28
2023-02-22T20:36:25.390Z,99821.53
2023-02-22T20:38:57.776Z,99823.75
2023-02-22T20:41:31.689Z,99835.56
2023-02-22T20:44:00.616Z,99744.19
2023-02-22T20:46:31.793Z,99846.34
2023-02-22T20:49:01.518Z,99849.59
2023-02-22T20:51:29.737Z,99843.22
2023-02-22T20:54:00.638Z,99856.97
2023-02-22T20:56:30.526Z,99813.69
2023-02-22T20:59:02.261Z,99835.97
2023-02-22T21:01:30.173Z,99854.72
2023-02-22T21:04:02.309Z,99863.13
2023-02-22T21:06:29.917Z,99813.66
2023-02-22T21:09:00.082Z,99852.81
2023-02-22T21:11:30.811Z,99859.88
2023-02-22T21:13:58.221Z,99842.94
2023-02-22T21:16:28.463Z,99838.63
2023-02-22T21:19:01.355Z,99852.63
2023-02-22T21:21:29.361Z,99759.31
2023-02-22T21:23:58.025Z,99838.13
2023-02-22T21:26:27.729Z,99836.34
2023-02-22T21:28:57.787Z,99862.91
2023-02-22T21:31:25.752Z,99811.25
2023-02-22T21:33:56.090Z,99811.38
2023-02-22T21:36:26.866Z,99842.56
2023-02-22T21:38:59.353Z,99874.16
2023-02-22T21:41:31.160Z,99820.53
2023-02-22T21:43:59.285Z,99874.88
2023-02-22T21:46:29.190Z,99852.88
2023-02-22T21:48:58.993Z,99868.19
2023-02-22T21:51:32.078Z,99887.41
2023-02-22T21:54:06.267Z,99784.00
2023-02-22T21:56:38.486Z,99883.09
2023-02-22T21:59:11.777Z,99887.53
2023-02-22T22:01:50.640Z,99886.75
2023-02-22T22:04:20.467Z,99896.22
2023-02-22T22:06:51.027Z,99897.09
2023-02-22T22:09:19.060Z,99896.94
2023-02-22T22:11:49.752Z,99899.25
2023-02-22T22:14:18.893Z,99889.38
2023-02-22T22:16:47.845Z,99856.69
2023-02-22T22:19:15.225Z,99817.84
2023-02-22T22:21:42.943Z,99875.91
2023-02-22T22:24:10.915Z,99898.09
2023-02-22T22:26:38.767Z,99890.22
2023-02-22T22:29:06.287Z,99910.13
2023-02-22T22:31:33.458Z,99890.94
2023-02-22T22:34:00.607Z,99902.75
2023-02-22T22:36:28.043Z,99882.19
2023-02-22T22:38:57.752Z,99914.13
2023-02-22T22:41:28.234Z,99856.47
2023-02-22T22:43:56.221Z,99820.88
2023-02-22T22:46:23.539Z,99904.56
2023-02-22T22:48:50.802Z,99910.94
2023-02-22T22:51:21.055Z,99882.41
2023-02-22T22:53:49.935Z,99901.78
2023-02-22T22:56:29.398Z,99924.50
2023-02-22T22:58:59.417Z,99901.59
2023-02-22T23:01:34.345Z,99839.41
2023-02-22T23:04:03.835Z,99913.75
2023-02-22T23:06:33.919Z,99926.47
2023-02-22T23:09:13.368Z,99889.75
2023-02-22T23:11:51.000Z,99862.13
2023-02-22T23:14:22.722Z,99901.00
2023-02-22T23:16:52.762Z,99885.50
2023-02-22T23:19:20.222Z,99831.03
2023-02-22T23:21:49.318Z,99919.75
2023-02-22T23:24:19.478Z,99753.78
2023-02-22T23:26:49.948Z,99777.97
2023-02-22T23:29:19.890Z,99908.03
2023-02-22T23:31:50.861Z,99883.38
2023-02-22T23:34:19.046Z,99708.16
2023-02-22T23:36:46.898Z,99917.41
2023-02-22T23:39:16.469Z,99934.44
2023-02-22T23:41:43.680Z,99941.22
2023-02-22T23:44:14.113Z,99926.97
2023-02-22T23:46:41.411Z,99910.72
2023-02-22T23:49:10.046Z,99952.31
2023-02-22T23:51:39.605Z,99956.00
2023-02-22T23:54:12.325Z,99938.28
2023-02-22T23:56:40.462Z,99946.09
2023-02-22T23:59:12.709Z,99961.88
